Terminal Aerodrome Forecast
Issued by NWS

Home | Current Version | Previous Version | Text Only | Print | Product List | Glossary On
Versions: 1 2 3 4 5 6 7 8 9 10 11 12
591
FTUS42 TJSJ 191141
TAFISX
TAF
TISX 191141Z 1912/2012 13005KT P6SM SCT030 BKN120
     FM191300 15008KT P6SM VCTS SCT030CB BKN120
      TEMPO 1916/1918 VRB10G20KT 5SM SHRA BKN025 BKN035
     FM192300 VRB04KT P6SM VCSH SCT030 SCT120
      AMD NOT SKED=

USA.gov is the U.S. government's official web portal to all federal, state and local government web resources and services.